Preston, Nebraska
Current Conditions -  °F | °C
As of 5:53 PM on Sunday 23 Nov 2014 (Local Time) from KFNB Reporting Station
Overcast Overcast  
Wind Chill: 35°   Ceiling: 5000
Heat Index: 42°   Visibility: 10mi
Dew Point: 37°   Wind: 15mph
Humidity: 82%   Direction: 330°NNW
Pressure: 29.49"   Gusts: 23mph
Location:  40.1276°N, 95.5661°W
Report Text: KFNB 232353Z AUTO 33013G20KT 10SM FEW018 FEW022 OVC050 06/03 A2949 RMK AO2 PK WND 35026/2319 RAE53 SLP987 P0001 60002 T00560028 10144 20056 51018
Loading
Personal Weather Stations






























Interactive Weather Map New forecast layout! Learn more

10-Day Weather Forecast

Advertisements
Track Severe Weather on mobile